Paradise Valley, Nevada Weather observations

Data are for 10 minute period ending at time listed.
 Day   Time   Solar   Ave.   Ave.  Ave.  Vector  Max.   Baro.   Total    
  of    of     Rad.   Air    Rel.  Wind   Wind   Wind  Press.  Precip.   
Year   Day            Temp.  Hum.  Speed  Dir.   Gust                    
2015   (PST)  Kw/m2    F      %     mph   deg.    mph    mb.     in.     
-------------------------------------------------------------------------
 179   15:50   0.49   92.7    19   12.8   276    22.7   863.9    0.00 
 179   16:00   0.64   92.7    20   15.6   290    24.8   863.9    0.00 
 179   16:10   0.59   93.9    17   15.4   280    22.8   863.9    0.00 
 179   16:20   0.53   94.4    17   14.1   284    24.8   863.8    0.00 
 179   16:30   0.51   92.9    20   11.5   293    15.6   863.7    0.00 
 179   16:40   0.47   93.0    21    8.9   294    14.9   863.6    0.00 
 179   16:50   0.41   93.7    18    9.7   287    14.6   863.6    0.00 
 179   17:00   0.42   94.2    18    8.4   283    17.2   863.7    0.00 
 179   17:10   0.39   94.8    17    7.9   285    15.6   863.7    0.00 
 179   17:20   0.36   94.2    17    9.1   281    17.0   863.6    0.00 
 179   17:30   0.30   94.4    17    7.5   280    12.8   863.6    0.00 
 179   17:40   0.13   91.9    20    5.9   251    11.1   863.8    0.00 
 179   17:50   0.04   88.3    24    7.0   227     9.8   864.2    0.00 
 179   18:00   0.02   84.8    29   14.4   189    35.6   865.1    0.00 
 179   18:10   0.01   80.3    34   18.4   199    34.0   866.1    0.00 
 179   18:20   0.01   82.1    29   15.7   233    25.9   866.2    0.00 
 179   18:30   0.01   85.5    24   10.5   157    27.0   865.9    0.00 
 179   18:40   0.01   82.5    28   13.5   317    18.3   865.1    0.00 
 179   18:50   0.02   82.0    28    7.7   308    12.5   865.0    0.00 
 179   19:00   0.02   81.9    28    5.4   310    10.3   864.9    0.00 
 179   19:10   0.02   81.9    28    8.5   320    13.8   864.8    0.00 
 179   19:20   0.01   86.0    21    5.4   317    10.5   864.8    0.00 
 179   19:30   0.01   84.6    26    1.8   241     5.8   865.0    0.00 
 179   19:40   0.00   79.3    34    5.3   209     7.1   865.2    0.00 
 179   19:50   0.00   76.4    41    1.9   218     5.9   865.4    0.00 
 179   20:00   0.00   75.6    43    3.7   224     5.3   865.5    0.00 
 179   20:10   0.00   76.7    36    4.9   290     8.0   865.8    0.00 
 179   20:20   0.00   80.1    31    2.9    23     6.8   866.0    0.00 
 179   20:30   0.00   77.4    38    3.1    83     4.9   866.0    0.00 
 179   20:40   0.00   74.6    45    3.8   110     6.1   866.2    0.00 
 179   20:50   0.00   73.7    48    2.2   162     6.1   866.2    0.00 
 179   21:00   0.00   73.1    48    4.8   234     7.8   866.3    0.00 
 179   21:10   0.00   76.7    36    3.2   239     8.3   866.3    0.00 
 179   21:20   0.00   76.0    37    2.6    23     7.9   866.4    0.00 
 179   21:30   0.00   75.3    42    2.0   255     4.3   866.4    0.00 
 179   21:40   0.00   73.6    45    3.9   234     5.4   866.4    0.00 
 179   21:50   0.00   73.4    46    4.2   330     6.6   866.4    0.00 
 179   22:00   0.00   69.5    59    5.4   345     7.5   866.4    0.00 
 179   22:10   0.00   69.0    61    3.7   347     5.0   866.4    0.00 
 179   22:20   0.00   68.6    60    3.1   353     4.4   866.6    0.00 
 179   22:30   0.00   69.7    57    3.2   348     4.4   866.6    0.00 
 179   22:40   0.00   69.3    59    3.3   322     5.1   866.6    0.00 
 179   22:50   0.00   69.5    56    3.9   308     4.7   866.6    0.00 
 179   23:00   0.00   69.8    56    2.6   326     4.1   866.5    0.00 
 179   23:10   0.00   69.4    55    3.0   321     4.5   866.4    0.00 
 179   23:20   0.00   69.7    51    3.1   309     3.9   866.3    0.00 
 179   23:30   0.00   68.5    55    2.9   274     4.5   866.4    0.00 
 179   23:40   0.00   69.7    52    2.9   203     7.4   866.5    0.00 
 179   23:50   0.00   68.0    58    6.5   148     7.9   866.6    0.00 
 180    0:00   0.00   71.3    47    3.1    97     6.0   866.5    0.00 
 180    0:10   0.00   69.9    50    2.9   103     6.2   866.6    0.00 
 180    0:20   0.00   68.6    54    3.7   200     7.4   866.7    0.00 
 180    0:30   0.00   70.6    47    1.8    57     4.8   866.5    0.00 
 180    0:40   0.00   71.9    43    3.1   181     7.5   866.4    0.00 
 180    0:50   0.00   72.3    44    3.1    99     7.3   866.3    0.00 
 180    1:00   0.00   70.7    46    3.4   137     5.5   866.4    0.00 
 180    1:10   0.00   68.9    51    3.0   163     6.0   866.5    0.00 
 180    1:20   0.00   67.4    55    0.5   218     2.0   866.5    0.00 
 180    1:30   0.00   64.9    63    1.6   278     4.9   866.4    0.00 
 180    1:40   0.00   63.8    62    3.1   274     4.6   866.2    0.00 
 180    1:50   0.00   64.1    62    0.5   290     2.2   866.2    0.00 
 180    2:00   0.00   64.4    60    0.7   269     3.0   866.2    0.00 
 180    2:10   0.00   65.2    58    3.2   196     3.9   866.1    0.00 
 180    2:20   0.00   64.1    62    3.6   239     6.1   866.1    0.00 
 180    2:30   0.00   62.2    64    6.1   246     7.6   866.2    0.00 
 180    2:40   0.00   63.3    60    3.5   265     4.2   866.2    0.00 
 180    2:50   0.00   64.7    56    3.3   272     4.4   866.3    0.00 
 180    3:00   0.00   64.7    58    2.8   273     3.8   866.4    0.00 
 180    3:10   0.00   65.4    55    1.9   291     2.5   866.4    0.00 
 180    3:20   0.00   66.4    51    0.9   275     1.8   866.5    0.00 
 180    3:30   0.00   66.6    52    0.3   287     2.0   866.6    0.00 
 180    3:40   100.00  99999.0   99999  99999.0   99999   99999.0   99999.0   99999.00 
 180    3:50   0.00   64.9    55    1.4   311     2.3   866.7    0.00 
 180    4:00   0.00   64.6    55    2.0   308     3.5   866.9    0.00 
 180    4:10   0.00   61.8    63    3.0   285     4.2   866.9    0.00 
 180    4:20   0.00   60.8    66    3.7   274     5.0   866.9    0.00 
 180    4:30   0.01   60.7    65    2.5   290     3.3   867.0    0.00 
 180    4:40   0.01   62.0    61    2.4   262     4.5   867.2    0.00 
 180    4:50   0.02   61.3    64    2.7   232     3.8   867.3    0.00 
 180    5:00   0.03   59.9    68    1.4   253     3.1   867.3    0.00 
 180    5:10   0.02   60.0    67    0.3   242     1.2   867.4    0.00 
 180    5:20   0.02   60.7    67    2.8   293     3.9   867.4    0.00 
 180    5:30   0.03   60.8    67    2.9   296     3.7   867.5    0.00 
 180    5:40   0.05   63.1    57    1.9   269     3.4   867.7    0.00 
 180    5:50   0.10   66.5    50    0.7   295     2.2   867.8    0.00 
 180    6:00   0.20   67.6    51    2.0   353     4.5   867.9    0.00 
 180    6:10   0.25   67.4    57    3.9    14     5.4   868.0    0.00 
 180    6:20   0.29   69.1    56    2.6   344     4.3   868.2    0.00 
 180    6:30   0.32   70.5    53    3.3   348     4.5   868.5    0.00 
 180    6:40   0.33   71.5    47    4.2    17     6.2   868.5    0.00 
 180    6:50   0.38   72.9    46    4.8    25     6.1   868.5    0.00 
 180    7:00   0.30   73.5    46    3.8    24     5.6   868.6    0.00 
 180    7:10   0.21   73.2    50    2.1   358     3.9   868.6    0.00 
 180    7:20   0.20   73.4    48    1.9     1     2.6   868.7    0.00 
 180    7:30   0.28   74.0    51    2.3   345     3.7   868.6    0.00 
 180    7:40   0.50   76.1    45    3.5   357     5.2   868.6    0.00 
 180    7:50   0.38   78.1    38    4.1    36     6.3   868.6    0.00 
 180    8:00   0.50   79.3    35    4.0    35     5.8   868.7    0.00 
 180    8:10   0.58   80.7    35    3.0    59     4.5   868.7    0.00 
 180    8:20   0.63   82.7    34    2.6   158     4.2   868.8    0.00 
 180    8:30   0.51   83.1    33    2.3   108     4.7   868.7    0.00 
 180    8:40   0.38   81.8    34    1.5    21     2.8   868.4    0.00 
 180    8:50   0.70   83.6    33    1.7   255     2.9   868.5    0.00 
 180    9:00   0.67   85.4    33    2.7   204     4.2   868.5    0.00 
 180    9:10   0.67   84.5    35    2.7   204     3.7   868.5    0.00 
 180    9:20   0.70   86.5    28    2.3   196     4.2   868.4    0.00 
 180    9:30   0.78   88.6    27    1.6   188     3.7   868.3    0.00 
 180    9:40   0.34   87.4    32    2.0   163     2.8   868.1    0.00 
 180    9:50   0.24   85.1    36    3.0   151     4.7   868.1    0.00 
 180   10:00   0.56   84.2    36    3.7   144     4.5   868.1    0.00 
 180   10:10   0.79   87.7    25    3.1   153     4.2   868.1    0.00 
 180   10:20   0.96   90.1    23    3.0   156     4.4   868.0    0.00 
 180   10:30   0.84   90.7    20    3.2    44     5.2   867.9    0.00 
 180   10:40   0.51   89.5    23    3.0    80     5.3   867.9    0.00 
 180   10:50   0.86   90.2    21    3.2    86     5.7   867.8    0.00 
 180   11:00   1.03   91.6    21    3.5   121     5.6   867.7    0.00 
 180   11:10   1.04   92.0    21    3.5   126     6.4   867.6    0.00 
 180   11:20   1.04   92.6    18    3.4   118     6.6   867.4    0.00 
 180   11:30   1.05   93.5    17    2.5   117     5.1   867.2    0.00 
 180   11:40   0.96   94.2    18    2.8   115     6.6   867.1    0.00 
 180   11:50   0.68   92.9    18    4.4   108     6.4   866.9    0.00 
 180   12:00   0.66   92.9    21    4.8   105     7.6   866.9    0.00 
 180   12:10   0.87   93.1    19    5.7    89     7.8   866.7    0.00 
 180   12:20   0.95   93.7    19    5.9    94     8.5   866.6    0.00 
 180   12:30   0.83   94.0    21    5.7   132    10.5   866.6    0.00 
 180   12:40   1.07   93.6    21    6.1   165    11.9   866.6    0.00 
 180   12:50   1.09   94.7    20    7.0   141    10.7   866.4    0.00 
 180   13:00   1.03   95.0    19    6.9   159    13.1   866.4    0.00 
 180   13:10   1.03   95.3    17    5.0   162    10.6   866.4    0.00 
 180   13:20   0.72   95.5    21    5.6   171    11.0   866.3    0.00 
 180   13:30   0.69   94.9    19    4.5   173     8.5   866.2    0.00 
 180   13:40   0.83   95.9    17    3.6   273     7.2   866.1    0.00 
 180   13:50   0.49   94.8    17    5.5   355     8.9   865.9    0.00 
 180   14:00   0.45   93.7    17    4.1    10     8.8   865.7    0.00 
 180   14:10   0.94   95.8    16    3.1    21     7.3   865.6    0.00 
 180   14:20   0.91   97.9    17    2.9    18     8.9   865.6    0.00 
 180   14:30   0.93   98.0    17    4.4   214     8.0   865.5    0.00 
 180   14:40   0.86   97.8    19    5.7   185     9.3   865.3    0.00 
 180   14:50   0.80   97.2    18    6.1   197    11.2   865.2    0.00 
 180   15:00   0.70   96.2    17    7.5   216    11.4   865.1    0.00 
 180   15:10   0.49   96.7    15    3.2   260     6.6   865.0    0.00 
 180   15:20   0.63   95.1    19    9.3   258    17.1   864.9    0.00 
 180   15:30   0.41   93.4    20    7.7   265    16.1   864.8    0.00 
 180   15:40   0.18   91.3    23    6.1   272     9.1   864.8    0.00 

Return to Paradise Valley graphs page.


Western Regional Climate Center,wrcc@dri.edu